sensor_id;sensor_type;location;lat;lon;timestamp;pressure;altitude;pressure_sealevel;temperature;humidity
71764;BME280;59602;52.142;5.408;2022-10-16T00:01:10;101100.63;;;12.19;90.13
71764;BME280;59602;52.142;5.408;2022-10-16T00:03:39;101091.28;;;12.20;90.14
71764;BME280;59602;52.142;5.408;2022-10-16T00:06:07;101092.47;;;12.19;90.31
71764;BME280;59602;52.142;5.408;2022-10-16T00:08:34;101087.00;;;12.19;90.15
71764;BME280;59602;52.142;5.408;2022-10-16T00:11:04;101092.84;;;12.18;90.13
71764;BME280;59602;52.142;5.408;2022-10-16T00:13:32;101091.28;;;12.17;90.23
71764;BME280;59602;52.142;5.408;2022-10-16T00:16:00;101092.06;;;12.17;90.00
71764;BME280;59602;52.142;5.408;2022-10-16T00:18:28;101099.06;;;12.18;90.32
71764;BME280;59602;52.142;5.408;2022-10-16T00:20:55;101090.88;;;12.18;90.13
71764;BME280;59602;52.142;5.408;2022-10-16T00:23:21;101101.00;;;12.18;89.96
71764;BME280;59602;52.142;5.408;2022-10-16T00:25:56;101107.25;;;12.15;90.35
71764;BME280;59602;52.142;5.408;2022-10-16T00:28:23;101114.25;;;12.16;90.04
71764;BME280;59602;52.142;5.408;2022-10-16T00:30:49;101106.06;;;12.16;89.95
71764;BME280;59602;52.142;5.408;2022-10-16T00:33:16;101099.47;;;12.17;90.35
71764;BME280;59602;52.142;5.408;2022-10-16T00:35:43;101104.50;;;12.18;90.03
71764;BME280;59602;52.142;5.408;2022-10-16T00:38:10;101097.13;;;12.19;90.41
71764;BME280;59602;52.142;5.408;2022-10-16T00:40:36;101090.91;;;12.22;90.32
71764;BME280;59602;52.142;5.408;2022-10-16T00:43:12;101092.47;;;12.23;90.33
71764;BME280;59602;52.142;5.408;2022-10-16T00:45:38;101093.63;;;12.25;90.43
71764;BME280;59602;52.142;5.408;2022-10-16T00:48:10;101090.13;;;12.25;90.65
71764;BME280;59602;52.142;5.408;2022-10-16T00:50:40;101096.75;;;12.24;90.37
71764;BME280;59602;52.142;5.408;2022-10-16T00:53:10;101094.44;;;12.26;90.83
71764;BME280;59602;52.142;5.408;2022-10-16T00:55:38;101092.47;;;12.27;90.43
71764;BME280;59602;52.142;5.408;2022-10-16T00:58:08;101095.22;;;12.30;90.37
71764;BME280;59602;52.142;5.408;2022-10-16T01:00:34;101097.97;;;12.30;90.60
71764;BME280;59602;52.142;5.408;2022-10-16T01:03:02;101094.81;;;12.32;90.71
71764;BME280;59602;52.142;5.408;2022-10-16T01:05:41;101103.03;;;12.35;90.53
71764;BME280;59602;52.142;5.408;2022-10-16T01:08:22;101105.34;;;12.37;90.37
71764;BME280;59602;52.142;5.408;2022-10-16T01:11:01;101102.63;;;12.37;90.61
71764;BME280;59602;52.142;5.408;2022-10-16T01:13:36;101111.97;;;12.36;90.78
71764;BME280;59602;52.142;5.408;2022-10-16T01:16:13;101105.75;;;12.39;90.75
71764;BME280;59602;52.142;5.408;2022-10-16T01:18:46;101108.09;;;12.40;90.79
71764;BME280;59602;52.142;5.408;2022-10-16T01:21:24;101107.72;;;12.45;90.77
71764;BME280;59602;52.142;5.408;2022-10-16T01:29:56;101101.09;;;12.50;90.85
71764;BME280;59602;52.142;5.408;2022-10-16T01:32:38;101099.19;;;12.51;91.00
71764;BME280;59602;52.142;5.408;2022-10-16T01:35:15;101108.91;;;12.52;90.93
71764;BME280;59602;52.142;5.408;2022-10-16T01:40:23;101101.50;;;12.52;90.86
71764;BME280;59602;52.142;5.408;2022-10-16T01:42:57;101106.97;;;12.52;91.20
71764;BME280;59602;52.142;5.408;2022-10-16T01:45:28;101104.22;;;12.52;91.06
71764;BME280;59602;52.142;5.408;2022-10-16T01:47:56;101105.44;;;12.55;91.46
71764;BME280;59602;52.142;5.408;2022-10-16T01:50:24;101100.75;;;12.55;91.15
71764;BME280;59602;52.142;5.408;2022-10-16T01:52:54;101096.84;;;12.56;91.25
71764;BME280;59602;52.142;5.408;2022-10-16T01:55:28;101100.34;;;12.57;91.44
71764;BME280;59602;52.142;5.408;2022-10-16T01:57:57;101086.31;;;12.58;91.07
71764;BME280;59602;52.142;5.408;2022-10-16T02:00:26;101098.00;;;12.59;91.40
71764;BME280;59602;52.142;5.408;2022-10-16T02:02:54;101094.13;;;12.60;91.61
71764;BME280;59602;52.142;5.408;2022-10-16T02:05:31;101085.19;;;12.59;91.69
71764;BME280;59602;52.142;5.408;2022-10-16T02:08:00;101086.69;;;12.57;91.79
71764;BME280;59602;52.142;5.408;2022-10-16T02:10:31;101091.00;;;12.58;91.70
71764;BME280;59602;52.142;5.408;2022-10-16T02:13:06;101092.16;;;12.57;91.68
71764;BME280;59602;52.142;5.408;2022-10-16T02:15:33;101091.00;;;12.58;91.49
71764;BME280;59602;52.142;5.408;2022-10-16T02:18:00;101093.72;;;12.58;91.61
71764;BME280;59602;52.142;5.408;2022-10-16T02:20:29;101103.47;;;12.59;91.79
71764;BME280;59602;52.142;5.408;2022-10-16T02:23:00;101100.75;;;12.59;91.50
71764;BME280;59602;52.142;5.408;2022-10-16T02:25:34;101095.28;;;12.59;91.31
71764;BME280;59602;52.142;5.408;2022-10-16T02:28:08;101108.16;;;12.58;91.21
71764;BME280;59602;52.142;5.408;2022-10-16T02:30:41;101108.16;;;12.58;91.13
71764;BME280;59602;52.142;5.408;2022-10-16T02:33:11;101101.91;;;12.58;91.25
71764;BME280;59602;52.142;5.408;2022-10-16T02:35:40;101099.97;;;12.58;91.05
71764;BME280;59602;52.142;5.408;2022-10-16T02:38:08;101105.41;;;12.58;90.86
71764;BME280;59602;52.142;5.408;2022-10-16T02:40:36;101104.66;;;12.58;90.77
71764;BME280;59602;52.142;5.408;2022-10-16T02:43:04;101117.50;;;12.57;90.96
71764;BME280;59602;52.142;5.408;2022-10-16T02:45:32;101112.44;;;12.56;90.76
71764;BME280;59602;52.142;5.408;2022-10-16T02:47:59;101113.22;;;12.56;90.87
71764;BME280;59602;52.142;5.408;2022-10-16T02:50:26;101122.56;;;12.55;90.56
71764;BME280;59602;52.142;5.408;2022-10-16T02:52:52;101121.00;;;12.54;90.50
71764;BME280;59602;52.142;5.408;2022-10-16T02:55:19;101114.00;;;12.53;90.49
71764;BME280;59602;52.142;5.408;2022-10-16T02:57:46;101120.22;;;12.54;90.31
71764;BME280;59602;52.142;5.408;2022-10-16T03:00:14;101123.72;;;12.54;90.78
71764;BME280;59602;52.142;5.408;2022-10-16T03:02:41;101124.91;;;12.53;90.97
71764;BME280;59602;52.142;5.408;2022-10-16T03:05:08;101126.03;;;12.52;91.07
71764;BME280;59602;52.142;5.408;2022-10-16T03:07:35;101131.09;;;12.50;91.29
71764;BME280;59602;52.142;5.408;2022-10-16T03:10:02;101127.22;;;12.51;91.46
71764;BME280;59602;52.142;5.408;2022-10-16T03:12:29;101108.13;;;12.51;91.55
71764;BME280;59602;52.142;5.408;2022-10-16T03:14:56;101113.22;;;12.53;91.30
71764;BME280;59602;52.142;5.408;2022-10-16T03:17:23;101106.19;;;12.52;91.56
71764;BME280;59602;52.142;5.408;2022-10-16T03:19:50;101104.63;;;12.51;91.61
71764;BME280;59602;52.142;5.408;2022-10-16T03:22:17;101115.16;;;12.49;91.37
71764;BME280;59602;52.142;5.408;2022-10-16T03:24:44;101107.34;;;12.47;91.69
71764;BME280;59602;52.142;5.408;2022-10-16T03:27:10;101116.69;;;12.46;91.77
71764;BME280;59602;52.142;5.408;2022-10-16T03:29:37;101118.22;;;12.43;91.34
71764;BME280;59602;52.142;5.408;2022-10-16T03:32:03;101129.94;;;12.44;91.36
71764;BME280;59602;52.142;5.408;2022-10-16T03:34:30;101126.41;;;12.43;91.51
71764;BME280;59602;52.142;5.408;2022-10-16T03:36:57;101127.22;;;12.44;91.51
71764;BME280;59602;52.142;5.408;2022-10-16T03:39:23;101122.94;;;12.46;90.91
71764;BME280;59602;52.142;5.408;2022-10-16T03:41:50;101134.63;;;12.47;90.98
71764;BME280;59602;52.142;5.408;2022-10-16T03:44:16;101129.16;;;12.47;91.11
71764;BME280;59602;52.142;5.408;2022-10-16T03:46:44;101140.44;;;12.45;91.32
71764;BME280;59602;52.142;5.408;2022-10-16T03:49:11;101145.50;;;12.43;91.38
71764;BME280;59602;52.142;5.408;2022-10-16T03:51:38;101133.81;;;12.39;91.20
71764;BME280;59602;52.142;5.408;2022-10-16T03:54:04;101143.56;;;12.40;91.49
71764;BME280;59602;52.142;5.408;2022-10-16T03:56:31;101137.69;;;12.38;91.47
71764;BME280;59602;52.142;5.408;2022-10-16T03:58:57;101145.47;;;12.36;91.61
71764;BME280;59602;52.142;5.408;2022-10-16T04:01:24;101146.66;;;12.35;91.43
71764;BME280;59602;52.142;5.408;2022-10-16T04:03:51;101140.03;;;12.33;91.28
71764;BME280;59602;52.142;5.408;2022-10-16T04:06:17;101148.97;;;12.30;91.49
71764;BME280;59602;52.142;5.408;2022-10-16T04:08:44;101159.09;;;12.29;91.67
71764;BME280;59602;52.142;5.408;2022-10-16T04:11:11;101157.53;;;12.28;91.52
71764;BME280;59602;52.142;5.408;2022-10-16T04:13:37;101159.88;;;12.26;91.67
71764;BME280;59602;52.142;5.408;2022-10-16T04:16:04;101152.06;;;12.24;91.55
71764;BME280;59602;52.142;5.408;2022-10-16T04:18:31;101170.38;;;12.24;91.62
71764;BME280;59602;52.142;5.408;2022-10-16T04:21:02;101174.25;;;12.23;91.80
71764;BME280;59602;52.142;5.408;2022-10-16T04:23:29;101182.81;;;12.21;91.63
71764;BME280;59602;52.142;5.408;2022-10-16T04:25:55;101183.97;;;12.20;91.72
71764;BME280;59602;52.142;5.408;2022-10-16T04:28:22;101183.19;;;12.20;91.95
71764;BME280;59602;52.142;5.408;2022-10-16T04:30:48;101185.94;;;12.20;91.79
71764;BME280;59602;52.142;5.408;2022-10-16T04:33:15;101193.69;;;12.18;91.56
71764;BME280;59602;52.142;5.408;2022-10-16T04:35:41;101192.94;;;12.17;92.05
71764;BME280;59602;52.142;5.408;2022-10-16T04:38:08;101193.31;;;12.19;91.98
71764;BME280;59602;52.142;5.408;2022-10-16T04:40:34;101194.47;;;12.18;91.88
71764;BME280;59602;52.142;5.408;2022-10-16T04:43:03;101201.91;;;12.21;91.79
71764;BME280;59602;52.142;5.408;2022-10-16T04:45:30;101195.66;;;12.21;91.92
71764;BME280;59602;52.142;5.408;2022-10-16T04:47:58;101203.84;;;12.21;91.87
71764;BME280;59602;52.142;5.408;2022-10-16T04:50:25;101199.16;;;12.18;91.86
71764;BME280;59602;52.142;5.408;2022-10-16T04:52:51;101203.44;;;12.19;92.11
71764;BME280;59602;52.142;5.408;2022-10-16T04:55:18;101213.56;;;12.18;92.24
71764;BME280;59602;52.142;5.408;2022-10-16T04:57:44;101216.69;;;12.17;91.79
71764;BME280;59602;52.142;5.408;2022-10-16T05:00:11;101219.00;;;12.18;92.06
71764;BME280;59602;52.142;5.408;2022-10-16T05:02:38;101221.38;;;12.20;92.22
71764;BME280;59602;52.142;5.408;2022-10-16T05:05:05;101220.59;;;12.19;92.21
71764;BME280;59602;52.142;5.408;2022-10-16T05:07:32;101226.81;;;12.20;91.88
71764;BME280;59602;52.142;5.408;2022-10-16T05:09:59;101224.88;;;12.17;91.94
71764;BME280;59602;52.142;5.408;2022-10-16T05:12:25;101230.69;;;12.15;92.36
71764;BME280;59602;52.142;5.408;2022-10-16T05:14:52;101228.34;;;12.14;92.11
71764;BME280;59602;52.142;5.408;2022-10-16T05:17:18;101240.00;;;12.14;92.02
71764;BME280;59602;52.142;5.408;2022-10-16T05:19:45;101238.84;;;12.12;92.31
71764;BME280;59602;52.142;5.408;2022-10-16T05:22:11;101252.47;;;12.12;92.27
71764;BME280;59602;52.142;5.408;2022-10-16T05:24:38;101244.28;;;12.08;92.47
71764;BME280;59602;52.142;5.408;2022-10-16T05:27:04;101255.97;;;12.09;92.27
71764;BME280;59602;52.142;5.408;2022-10-16T05:29:31;101253.97;;;12.05;92.22
71764;BME280;59602;52.142;5.408;2022-10-16T05:31:58;101257.88;;;12.04;92.20
71764;BME280;59602;52.142;5.408;2022-10-16T05:34:24;101268.00;;;12.04;92.21
71764;BME280;59602;52.142;5.408;2022-10-16T05:36:51;101275.41;;;12.03;91.91
71764;BME280;59602;52.142;5.408;2022-10-16T05:39:17;101273.03;;;12.02;92.05
71764;BME280;59602;52.142;5.408;2022-10-16T05:41:44;101278.50;;;12.02;92.26
71764;BME280;59602;52.142;5.408;2022-10-16T05:44:11;101290.16;;;12.02;92.14
71764;BME280;59602;52.142;5.408;2022-10-16T05:46:38;101288.22;;;12.03;92.51
71764;BME280;59602;52.142;5.408;2022-10-16T05:49:05;101290.56;;;12.04;92.33
71764;BME280;59602;52.142;5.408;2022-10-16T05:51:31;101286.69;;;12.05;92.38
71764;BME280;59602;52.142;5.408;2022-10-16T05:53:58;101289.03;;;12.07;92.67
71764;BME280;59602;52.142;5.408;2022-10-16T05:56:24;101305.03;;;12.09;92.29
71764;BME280;59602;52.142;5.408;2022-10-16T05:58:51;101315.56;;;12.10;92.60
71764;BME280;59602;52.142;5.408;2022-10-16T06:01:19;101316.34;;;12.11;92.77
71764;BME280;59602;52.142;5.408;2022-10-16T06:03:47;101319.06;;;12.11;92.74
71764;BME280;59602;52.142;5.408;2022-10-16T06:06:22;101320.25;;;12.13;93.13
71764;BME280;59602;52.142;5.408;2022-10-16T06:08:49;101322.59;;;12.15;92.85
71764;BME280;59602;52.142;5.408;2022-10-16T06:11:19;101317.16;;;12.18;93.31
71764;BME280;59602;52.142;5.408;2022-10-16T06:13:49;101324.19;;;12.19;92.94
71764;BME280;59602;52.142;5.408;2022-10-16T06:16:16;101323.00;;;12.20;93.38
71764;BME280;59602;52.142;5.408;2022-10-16T06:18:43;101337.81;;;12.23;92.91
71764;BME280;59602;52.142;5.408;2022-10-16T06:21:13;101334.72;;;12.24;92.99
71764;BME280;59602;52.142;5.408;2022-10-16T06:23:40;101331.22;;;12.24;93.31
71764;BME280;59602;52.142;5.408;2022-10-16T06:26:10;101355.75;;;12.24;93.30
71764;BME280;59602;52.142;5.408;2022-10-16T06:28:37;101355.41;;;12.29;93.07
71764;BME280;59602;52.142;5.408;2022-10-16T06:31:05;101353.09;;;12.31;93.41
71764;BME280;59602;52.142;5.408;2022-10-16T06:33:34;101367.91;;;12.34;93.29
71764;BME280;59602;52.142;5.408;2022-10-16T06:36:10;101349.59;;;12.34;92.99
71764;BME280;59602;52.142;5.408;2022-10-16T06:38:38;101347.28;;;12.36;93.36
71764;BME280;59602;52.142;5.408;2022-10-16T06:41:06;101355.09;;;12.38;93.00
71764;BME280;59602;52.142;5.408;2022-10-16T06:43:33;101363.25;;;12.38;93.56
71764;BME280;59602;52.142;5.408;2022-10-16T06:46:02;101364.03;;;12.38;93.12
71764;BME280;59602;52.142;5.408;2022-10-16T06:48:29;101372.22;;;12.38;93.59
71764;BME280;59602;52.142;5.408;2022-10-16T06:51:00;101376.91;;;12.38;93.62
71764;BME280;59602;52.142;5.408;2022-10-16T06:53:31;101379.25;;;12.39;93.54
71764;BME280;59602;52.142;5.408;2022-10-16T06:56:21;101381.22;;;12.42;93.12
71764;BME280;59602;52.142;5.408;2022-10-16T06:58:48;101383.56;;;12.44;93.06
71764;BME280;59602;52.142;5.408;2022-10-16T07:01:17;101371.91;;;12.47;92.99
71764;BME280;59602;52.142;5.408;2022-10-16T07:03:45;101373.06;;;12.50;93.24
71764;BME280;59602;52.142;5.408;2022-10-16T07:06:14;101359.84;;;12.52;93.06
71764;BME280;59602;52.142;5.408;2022-10-16T07:08:43;101364.56;;;12.55;92.69
71764;BME280;59602;52.142;5.408;2022-10-16T07:11:12;101382.88;;;12.58;92.90
71764;BME280;59602;52.142;5.408;2022-10-16T07:13:41;101382.50;;;12.59;93.01
71764;BME280;59602;52.142;5.408;2022-10-16T07:16:11;101398.13;;;12.62;92.81
71764;BME280;59602;52.142;5.408;2022-10-16T07:18:38;101403.59;;;12.66;92.74
71764;BME280;59602;52.142;5.408;2022-10-16T07:21:08;101409.44;;;12.68;92.29
71764;BME280;59602;52.142;5.408;2022-10-16T07:23:35;101408.28;;;12.69;92.19
71764;BME280;59602;52.142;5.408;2022-10-16T07:26:02;101414.94;;;12.72;92.12
71764;BME280;59602;52.142;5.408;2022-10-16T07:28:29;101416.50;;;12.73;92.32
71764;BME280;59602;52.142;5.408;2022-10-16T07:31:03;101418.06;;;12.74;92.28
71764;BME280;59602;52.142;5.408;2022-10-16T07:33:31;101428.63;;;12.75;92.18
71764;BME280;59602;52.142;5.408;2022-10-16T07:36:00;101441.47;;;12.78;91.75
71764;BME280;59602;52.142;5.408;2022-10-16T07:38:27;101435.66;;;12.80;91.32
71764;BME280;59602;52.142;5.408;2022-10-16T07:40:57;101450.09;;;12.80;91.26
71764;BME280;59602;52.142;5.408;2022-10-16T07:43:25;101446.56;;;12.80;91.31
71764;BME280;59602;52.142;5.408;2022-10-16T07:45:52;101455.91;;;12.79;91.53
71764;BME280;59602;52.142;5.408;2022-10-16T07:48:19;101467.63;;;12.79;91.20
71764;BME280;59602;52.142;5.408;2022-10-16T07:50:46;101467.63;;;12.79;91.01
71764;BME280;59602;52.142;5.408;2022-10-16T07:53:12;101478.13;;;12.77;90.77
71764;BME280;59602;52.142;5.408;2022-10-16T07:55:39;101490.19;;;12.76;91.41
71764;BME280;59602;52.142;5.408;2022-10-16T07:58:06;101494.88;;;12.76;90.91
71764;BME280;59602;52.142;5.408;2022-10-16T08:00:35;101497.59;;;12.76;91.53
71764;BME280;59602;52.142;5.408;2022-10-16T08:03:02;101492.94;;;12.76;91.51
71764;BME280;59602;52.142;5.408;2022-10-16T08:05:30;101493.34;;;12.78;91.57
71764;BME280;59602;52.142;5.408;2022-10-16T08:07:57;101498.84;;;12.82;91.70
71764;BME280;59602;52.142;5.408;2022-10-16T08:10:26;101503.47;;;12.81;92.10
71764;BME280;59602;52.142;5.408;2022-10-16T08:12:53;101503.13;;;12.83;92.10
71764;BME280;59602;52.142;5.408;2022-10-16T08:15:20;101507.44;;;12.84;92.04
71764;BME280;59602;52.142;5.408;2022-10-16T08:18:01;101507.06;;;12.89;91.95
71764;BME280;59602;52.142;5.408;2022-10-16T08:20:30;101517.63;;;12.91;91.91
71764;BME280;59602;52.142;5.408;2022-10-16T08:22:57;101511.75;;;12.92;91.94
71764;BME280;59602;52.142;5.408;2022-10-16T08:25:24;101520.41;;;12.98;91.88
71764;BME280;59602;52.142;5.408;2022-10-16T08:27:51;101526.25;;;13.00;91.99
71764;BME280;59602;52.142;5.408;2022-10-16T08:30:19;101515.75;;;13.02;91.93
71764;BME280;59602;52.142;5.408;2022-10-16T08:32:46;101515.41;;;13.11;91.26
71764;BME280;59602;52.142;5.408;2022-10-16T08:35:13;101531.84;;;13.18;91.21
71764;BME280;59602;52.142;5.408;2022-10-16T08:37:40;101534.59;;;13.21;91.18
71764;BME280;59602;52.142;5.408;2022-10-16T08:40:17;101540.03;;;13.21;91.17
71764;BME280;59602;52.142;5.408;2022-10-16T08:42:49;101532.66;;;13.25;90.40
71764;BME280;59602;52.142;5.408;2022-10-16T08:45:27;101538.53;;;13.27;90.47
71764;BME280;59602;52.142;5.408;2022-10-16T08:48:15;101554.56;;;13.29;90.42
71764;BME280;59602;52.142;5.408;2022-10-16T08:50:43;101560.81;;;13.29;90.64
71764;BME280;59602;52.142;5.408;2022-10-16T08:53:20;101563.16;;;13.31;90.31
71764;BME280;59602;52.142;5.408;2022-10-16T08:55:51;101571.78;;;13.37;90.08
71764;BME280;59602;52.142;5.408;2022-10-16T08:58:21;101568.69;;;13.38;90.44
71764;BME280;59602;52.142;5.408;2022-10-16T09:00:54;101563.63;;;13.44;90.83
71764;BME280;59602;52.142;5.408;2022-10-16T09:03:29;101580.81;;;13.48;90.10
71764;BME280;59602;52.142;5.408;2022-10-16T09:06:17;101571.06;;;13.50;90.02
71764;BME280;59602;52.142;5.408;2022-10-16T09:09:01;101573.06;;;13.57;89.49
71764;BME280;59602;52.142;5.408;2022-10-16T09:11:38;101580.13;;;13.58;89.30
71764;BME280;59602;52.142;5.408;2022-10-16T09:16:48;101579.34;;;13.61;88.35
71764;BME280;59602;52.142;5.408;2022-10-16T09:19:24;101589.13;;;13.66;88.90
71764;BME280;59602;52.142;5.408;2022-10-16T09:22:01;101600.88;;;13.70;88.48
71764;BME280;59602;52.142;5.408;2022-10-16T09:24:29;101599.72;;;13.75;88.44
71764;BME280;59602;52.142;5.408;2022-10-16T09:26:56;101594.28;;;13.78;88.86
71764;BME280;59602;52.142;5.408;2022-10-16T09:29:22;101609.94;;;13.88;88.73
71764;BME280;59602;52.142;5.408;2022-10-16T09:31:53;101599.03;;;13.92;89.56
71764;BME280;59602;52.142;5.408;2022-10-16T09:34:34;101610.75;;;13.93;89.25
71764;BME280;59602;52.142;5.408;2022-10-16T09:37:05;101615.06;;;13.94;89.10
71764;BME280;59602;52.142;5.408;2022-10-16T09:39:45;101614.72;;;14.02;88.87
71764;BME280;59602;52.142;5.408;2022-10-16T09:42:18;101608.50;;;14.09;87.79
71764;BME280;59602;52.142;5.408;2022-10-16T09:44:49;101608.13;;;14.18;87.45
71764;BME280;59602;52.142;5.408;2022-10-16T09:47:20;101611.66;;;14.25;87.56
71764;BME280;59602;52.142;5.408;2022-10-16T09:49:57;101617.53;;;14.31;86.72
71764;BME280;59602;52.142;5.408;2022-10-16T09:52:28;101622.25;;;14.38;86.03
71764;BME280;59602;52.142;5.408;2022-10-16T09:54:58;101634.41;;;14.51;85.38
71764;BME280;59602;52.142;5.408;2022-10-16T09:57:26;101633.28;;;14.59;84.82
71764;BME280;59602;52.142;5.408;2022-10-16T09:59:55;101629.78;;;14.62;85.23
71764;BME280;59602;52.142;5.408;2022-10-16T10:02:30;101636.84;;;14.67;83.97
71764;BME280;59602;52.142;5.408;2022-10-16T10:04:57;101646.63;;;14.71;84.63
71764;BME280;59602;52.142;5.408;2022-10-16T10:07:27;101641.56;;;14.73;84.14
71764;BME280;59602;52.142;5.408;2022-10-16T10:09:56;101642.72;;;14.80;83.11
71764;BME280;59602;52.142;5.408;2022-10-16T10:12:27;101637.66;;;14.85;81.96
71764;BME280;59602;52.142;5.408;2022-10-16T10:14:56;101636.09;;;14.88;82.52
71764;BME280;59602;52.142;5.408;2022-10-16T10:17:25;101644.31;;;14.88;83.64
71764;BME280;59602;52.142;5.408;2022-10-16T10:19:56;101638.84;;;14.91;82.23
71764;BME280;59602;52.142;5.408;2022-10-16T10:22:42;101639.63;;;14.99;81.19
71764;BME280;59602;52.142;5.408;2022-10-16T10:27:52;101657.63;;;15.04;80.74
71764;BME280;59602;52.142;5.408;2022-10-16T10:30:39;101654.50;;;15.05;80.60
71764;BME280;59602;52.142;5.408;2022-10-16T10:36:05;101654.88;;;15.18;78.56
71764;BME280;59602;52.142;5.408;2022-10-16T10:41:17;101665.88;;;15.25;80.76
71764;BME280;59602;52.142;5.408;2022-10-16T10:46:41;101670.56;;;15.28;78.14
71764;BME280;59602;52.142;5.408;2022-10-16T10:49:23;101674.84;;;15.33;78.66
71764;BME280;59602;52.142;5.408;2022-10-16T10:52:10;101680.72;;;15.42;78.00
71764;BME280;59602;52.142;5.408;2022-10-16T10:57:29;101685.00;;;15.65;78.03
71764;BME280;59602;52.142;5.408;2022-10-16T11:00:03;101676.41;;;15.70;77.33
71764;BME280;59602;52.142;5.408;2022-10-16T11:02:41;101678.00;;;15.71;78.48
71764;BME280;59602;52.142;5.408;2022-10-16T11:05:23;101679.56;;;15.72;76.89
71764;BME280;59602;52.142;5.408;2022-10-16T11:07:57;101685.03;;;15.75;75.26
71764;BME280;59602;52.142;5.408;2022-10-16T11:10:30;101688.56;;;15.76;75.20
71764;BME280;59602;52.142;5.408;2022-10-16T11:13:18;101690.91;;;15.81;75.31
71764;BME280;59602;52.142;5.408;2022-10-16T11:15:48;101696.78;;;15.83;72.92
71764;BME280;59602;52.142;5.408;2022-10-16T11:18:22;101698.34;;;15.77;74.61
71764;BME280;59602;52.142;5.408;2022-10-16T11:20:54;101701.50;;;15.72;75.53
71764;BME280;59602;52.142;5.408;2022-10-16T11:23:30;101702.66;;;15.67;74.64
71764;BME280;59602;52.142;5.408;2022-10-16T11:26:03;101705.41;;;15.67;74.59
71764;BME280;59602;52.142;5.408;2022-10-16T11:28:37;101723.41;;;15.65;76.66
71764;BME280;59602;52.142;5.408;2022-10-16T11:31:13;101721.47;;;15.65;73.58
71764;BME280;59602;52.142;5.408;2022-10-16T11:36:23;101712.44;;;15.68;72.99
71764;BME280;59602;52.142;5.408;2022-10-16T11:39:11;101717.53;;;15.70;72.81
71764;BME280;59602;52.142;5.408;2022-10-16T11:41:45;101716.75;;;15.62;73.63
71764;BME280;59602;52.142;5.408;2022-10-16T11:44:34;101719.88;;;15.53;72.26
71764;BME280;59602;52.142;5.408;2022-10-16T11:50:20;101719.09;;;15.42;73.54
71764;BME280;59602;52.142;5.408;2022-10-16T11:55:27;101719.09;;;15.49;74.54
71764;BME280;59602;52.142;5.408;2022-10-16T11:58:01;101734.38;;;15.50;72.89
71764;BME280;59602;52.142;5.408;2022-10-16T12:00:44;101725.34;;;15.53;72.68
71764;BME280;59602;52.142;5.408;2022-10-16T12:03:20;101730.84;;;15.57;70.93
71764;BME280;59602;52.142;5.408;2022-10-16T12:06:13;101734.38;;;15.57;71.13
71764;BME280;59602;52.142;5.408;2022-10-16T12:08:45;101730.06;;;15.60;70.77
71764;BME280;59602;52.142;5.408;2022-10-16T12:11:37;101732.41;;;15.69;72.18
71764;BME280;59602;52.142;5.408;2022-10-16T12:14:05;101735.19;;;15.72;69.76
71764;BME280;59602;52.142;5.408;2022-10-16T12:16:33;101739.09;;;15.79;69.08
71764;BME280;59602;52.142;5.408;2022-10-16T12:19:14;101746.16;;;15.83;69.23
71764;BME280;59602;52.142;5.408;2022-10-16T12:21:42;101738.31;;;15.82;69.68
71764;BME280;59602;52.142;5.408;2022-10-16T12:26:54;101736.72;;;15.81;69.52
71764;BME280;59602;52.142;5.408;2022-10-16T12:29:39;101737.13;;;15.79;70.99
71764;BME280;59602;52.142;5.408;2022-10-16T12:32:33;101748.50;;;15.77;70.06
71764;BME280;59602;52.142;5.408;2022-10-16T12:35:22;101756.34;;;15.79;72.00
71764;BME280;59602;52.142;5.408;2022-10-16T12:37:50;101761.81;;;15.75;72.40
71764;BME280;59602;52.142;5.408;2022-10-16T12:42:48;101753.16;;;15.66;69.68
71764;BME280;59602;52.142;5.408;2022-10-16T12:47:55;101748.47;;;15.67;71.27
71764;BME280;59602;52.142;5.408;2022-10-16T12:52:54;101755.53;;;15.71;69.62
71764;BME280;59602;52.142;5.408;2022-10-16T12:55:22;101754.78;;;15.74;69.19
71764;BME280;59602;52.142;5.408;2022-10-16T13:08:42;101754.34;;;15.94;71.20
71764;BME280;59602;52.142;5.408;2022-10-16T13:28:02;101774.72;;;16.04;72.08
71764;BME280;59602;52.142;5.408;2022-10-16T13:30:32;101773.94;;;16.03;70.59
71764;BME280;59602;52.142;5.408;2022-10-16T13:33:07;101778.25;;;16.04;69.78
71764;BME280;59602;52.142;5.408;2022-10-16T13:35:35;101782.53;;;16.05;69.65
71764;BME280;59602;52.142;5.408;2022-10-16T13:40:48;101787.25;;;16.12;69.63
71764;BME280;59602;52.142;5.408;2022-10-16T13:43:17;101788.81;;;16.13;69.96
71764;BME280;59602;52.142;5.408;2022-10-16T13:45:53;101802.16;;;16.14;71.68
71764;BME280;59602;52.142;5.408;2022-10-16T13:48:20;101790.00;;;16.15;70.79
71764;BME280;59602;52.142;5.408;2022-10-16T13:50:58;101778.25;;;16.15;72.46
71764;BME280;59602;52.142;5.408;2022-10-16T13:53:25;101782.56;;;16.12;71.38
71764;BME280;59602;52.142;5.408;2022-10-16T13:55:52;101781.38;;;16.13;71.10
71764;BME280;59602;52.142;5.408;2022-10-16T13:58:18;101789.22;;;16.11;70.04
71764;BME280;59602;52.142;5.408;2022-10-16T14:00:55;101793.53;;;16.12;70.22
71764;BME280;59602;52.142;5.408;2022-10-16T14:03:23;101799.03;;;16.12;69.72
71764;BME280;59602;52.142;5.408;2022-10-16T14:05:53;101805.28;;;16.13;71.84
71764;BME280;59602;52.142;5.408;2022-10-16T14:08:22;101805.66;;;16.11;71.95
71764;BME280;59602;52.142;5.408;2022-10-16T14:10:53;101806.09;;;16.10;72.61
71764;BME280;59602;52.142;5.408;2022-10-16T14:13:30;101801.38;;;16.10;71.94
71764;BME280;59602;52.142;5.408;2022-10-16T14:15:59;101800.59;;;16.10;70.56
71764;BME280;59602;52.142;5.408;2022-10-16T14:18:27;101804.50;;;16.09;72.94
71764;BME280;59602;52.142;5.408;2022-10-16T14:21:07;101797.47;;;16.08;74.46